createdAt,value
2023-05-09T00:01:07.661Z,63.56
2023-05-09T00:04:50.480Z,63.70
2023-05-09T00:08:33.195Z,63.35
2023-05-09T00:12:15.815Z,63.48
2023-05-09T00:16:00.130Z,63.63
2023-05-09T00:19:43.564Z,63.82
2023-05-09T00:23:27.867Z,63.93
2023-05-09T00:27:11.002Z,64.23
2023-05-09T00:30:53.730Z,64.76
2023-05-09T00:34:40.000Z,64.67
2023-05-09T00:38:24.012Z,64.81
2023-05-09T00:42:06.824Z,64.75
2023-05-09T00:45:49.680Z,64.94
2023-05-09T00:49:32.492Z,65.30
2023-05-09T00:53:16.544Z,65.06
2023-05-09T00:56:59.293Z,65.10
2023-05-09T01:00:43.030Z,65.20
2023-05-09T01:04:25.905Z,65.03
2023-05-09T01:08:14.420Z,64.99
2023-05-09T01:12:05.117Z,65.02
2023-05-09T01:15:52.798Z,64.80
2023-05-09T01:19:56.659Z,65.09
2023-05-09T01:24:01.802Z,65.53
2023-05-09T01:27:52.264Z,66.00
2023-05-09T01:31:38.301Z,66.03
2023-05-09T01:35:23.112Z,66.25
2023-05-09T01:39:07.205Z,66.23
2023-05-09T01:42:53.799Z,66.61
2023-05-09T01:46:38.847Z,66.71
2023-05-09T01:50:22.116Z,67.13
2023-05-09T01:54:05.752Z,67.38
2023-05-09T01:57:48.744Z,67.30
2023-05-09T02:01:31.638Z,67.35
2023-05-09T02:05:16.486Z,67.80
2023-05-09T02:08:59.644Z,67.91
2023-05-09T02:12:42.406Z,67.98
2023-05-09T02:16:25.210Z,68.24
2023-05-09T02:20:11.541Z,68.47
2023-05-09T02:23:55.651Z,68.71
2023-05-09T02:27:39.574Z,68.73
2023-05-09T02:31:23.981Z,68.92
2023-05-09T02:35:08.136Z,68.74
2023-05-09T02:38:51.235Z,68.92
2023-05-09T02:42:35.282Z,68.78
2023-05-09T02:46:17.975Z,69.12
2023-05-09T02:50:00.701Z,69.09
2023-05-09T02:53:43.357Z,69.34
2023-05-09T02:57:25.987Z,69.37
2023-05-09T03:01:11.122Z,69.04
2023-05-09T03:04:55.528Z,68.62
2023-05-09T03:08:38.306Z,68.78
2023-05-09T03:12:20.951Z,69.61
2023-05-09T03:16:03.648Z,70.39
2023-05-09T03:19:47.925Z,71.19
2023-05-09T03:23:30.645Z,70.29
2023-05-09T03:27:13.296Z,69.86
2023-05-09T03:30:56.104Z,70.06
2023-05-09T03:34:38.797Z,70.63
2023-05-09T03:38:24.358Z,70.92
2023-05-09T03:42:07.123Z,70.84
2023-05-09T03:45:49.882Z,70.90
2023-05-09T03:49:32.563Z,71.08
2023-05-09T03:53:15.470Z,71.08
2023-05-09T03:56:59.514Z,71.12
2023-05-09T04:00:42.357Z,71.08
2023-05-09T04:04:25.630Z,71.15
2023-05-09T04:08:08.370Z,71.21
2023-05-09T04:11:51.277Z,71.55
2023-05-09T04:15:35.202Z,71.38
2023-05-09T04:19:17.896Z,72.14
2023-05-09T04:23:00.672Z,72.52
2023-05-09T04:26:43.563Z,73.73
2023-05-09T04:30:27.266Z,73.80
2023-05-09T04:34:11.749Z,73.66
2023-05-09T04:37:57.061Z,74.09
2023-05-09T04:41:44.410Z,75.55
2023-05-09T04:45:27.758Z,74.82
2023-05-09T04:49:11.771Z,72.92
2023-05-09T04:52:55.386Z,72.29
2023-05-09T04:56:38.040Z,71.32
2023-05-09T05:00:21.400Z,70.80
2023-05-09T05:04:04.120Z,70.30
2023-05-09T05:07:48.161Z,69.97
2023-05-09T05:11:30.911Z,70.37
2023-05-09T05:15:14.187Z,69.91
2023-05-09T05:18:57.118Z,69.09
2023-05-09T05:22:42.726Z,67.64
2023-05-09T05:26:27.425Z,66.38
2023-05-09T05:30:11.060Z,66.29
2023-05-09T05:33:53.760Z,66.06
2023-05-09T05:37:36.593Z,66.07
2023-05-09T05:41:19.266Z,66.49
2023-05-09T05:45:04.479Z,66.80
2023-05-09T05:48:50.071Z,66.57
2023-05-09T05:52:32.856Z,66.29
2023-05-09T05:56:15.499Z,66.44
2023-05-09T05:59:58.180Z,65.53
2023-05-09T06:03:42.328Z,64.96
2023-05-09T06:07:25.158Z,65.35
2023-05-09T06:11:08.032Z,64.29
2023-05-09T06:14:50.673Z,64.02
2023-05-09T06:18:35.529Z,64.38
2023-05-09T06:22:19.606Z,62.97
2023-05-09T06:26:02.343Z,62.30
2023-05-09T06:29:44.975Z,63.15
2023-05-09T06:33:27.702Z,63.88
2023-05-09T06:37:10.449Z,63.04
2023-05-09T06:40:54.863Z,62.66
2023-05-09T06:44:37.602Z,62.75
2023-05-09T06:48:20.297Z,61.92
2023-05-09T06:52:02.956Z,61.62
2023-05-09T06:55:45.722Z,62.44
2023-05-09T06:59:29.867Z,61.77
2023-05-09T07:03:13.127Z,62.10
2023-05-09T07:06:55.920Z,61.99
2023-05-09T07:10:38.762Z,62.27
2023-05-09T07:14:21.610Z,61.77
2023-05-09T07:18:05.940Z,61.94
2023-05-09T07:21:48.652Z,61.45
2023-05-09T07:25:31.338Z,61.64
2023-05-09T07:29:14.034Z,61.71
2023-05-09T07:32:56.913Z,61.53
2023-05-09T07:36:41.054Z,62.29
2023-05-09T07:40:24.109Z,61.89
2023-05-09T07:44:07.145Z,62.38
2023-05-09T07:47:49.834Z,62.77
2023-05-09T07:51:32.868Z,62.69
2023-05-09T07:55:18.610Z,61.93
2023-05-09T07:59:03.682Z,61.91
2023-05-09T08:02:46.927Z,61.18
2023-05-09T08:06:29.955Z,61.77
2023-05-09T08:10:13.294Z,62.16
2023-05-09T08:13:57.316Z,61.87
2023-05-09T08:17:40.274Z,61.61
2023-05-09T08:21:23.051Z,62.28
2023-05-09T08:25:06.503Z,61.28
2023-05-09T08:28:49.254Z,59.99
2023-05-09T08:32:33.399Z,60.10
2023-05-09T08:36:16.301Z,60.92
2023-05-09T08:40:04.527Z,62.06
2023-05-09T08:43:47.679Z,62.83
2023-05-09T08:47:31.247Z,62.23
2023-05-09T08:51:18.310Z,61.67
2023-05-09T08:55:01.183Z,62.30
2023-05-09T08:58:44.101Z,61.81
2023-05-09T09:02:26.812Z,61.84
2023-05-09T09:06:10.525Z,62.76
2023-05-09T09:09:55.310Z,62.30
2023-05-09T09:13:40.503Z,61.51
2023-05-09T09:17:27.988Z,61.85
2023-05-09T09:21:11.404Z,60.80
2023-05-09T09:24:55.821Z,59.92
2023-05-09T09:28:40.045Z,59.38
2023-05-09T09:32:34.106Z,59.40
2023-05-09T09:36:16.972Z,58.41
2023-05-09T09:40:01.093Z,60.84
2023-05-09T09:43:48.109Z,60.53
2023-05-09T09:47:34.266Z,60.38
2023-05-09T09:51:18.375Z,59.15
2023-05-09T09:55:02.495Z,59.47
2023-05-09T09:58:45.267Z,57.97
2023-05-09T10:02:28.007Z,58.89
2023-05-09T10:06:12.035Z,60.47
2023-05-09T10:09:54.739Z,61.18
2023-05-09T10:13:39.445Z,59.85
2023-05-09T10:17:23.315Z,59.44
2023-05-09T10:21:06.680Z,57.61
2023-05-09T10:24:52.761Z,57.30
2023-05-09T10:28:38.528Z,58.57
2023-05-09T10:32:40.353Z,58.07
2023-05-09T10:36:23.817Z,57.79
2023-05-09T10:40:07.845Z,56.92
2023-05-09T10:43:52.251Z,56.62
2023-05-09T10:47:35.129Z,57.01
2023-05-09T10:51:18.796Z,55.88
2023-05-09T10:55:02.277Z,57.37
2023-05-09T10:58:48.972Z,56.76
2023-05-09T11:02:34.881Z,56.22
2023-05-09T11:06:41.585Z,56.99
2023-05-09T11:10:24.422Z,56.06
2023-05-09T11:14:07.124Z,56.40
2023-05-09T11:18:06.560Z,56.20
2023-05-09T11:22:02.347Z,55.41
2023-05-09T11:25:46.975Z,54.51
2023-05-09T11:29:29.757Z,54.90
2023-05-09T11:33:24.827Z,54.51
2023-05-09T11:37:11.277Z,54.26
2023-05-09T11:40:54.934Z,53.44
2023-05-09T11:44:37.749Z,53.73
2023-05-09T11:48:24.463Z,54.14
2023-05-09T11:52:07.138Z,53.49
2023-05-09T11:55:50.046Z,54.20
2023-05-09T11:59:32.810Z,53.96
2023-05-09T12:03:15.614Z,53.92
2023-05-09T12:07:00.556Z,53.64
2023-05-09T12:10:43.216Z,53.26
2023-05-09T12:14:30.167Z,52.57
2023-05-09T12:18:12.987Z,51.29
2023-05-09T12:21:57.862Z,52.42
2023-05-09T12:25:42.910Z,52.51
2023-05-09T12:29:26.710Z,51.71
2023-05-09T12:33:10.820Z,52.65
2023-05-09T12:36:53.762Z,50.24
2023-05-09T12:40:37.054Z,50.15
2023-05-09T12:44:22.578Z,50.14
2023-05-09T12:48:06.162Z,50.09
2023-05-09T12:51:50.114Z,48.98
2023-05-09T12:55:39.973Z,49.84
2023-05-09T12:59:24.900Z,48.92
2023-05-09T13:03:08.188Z,49.60
2023-05-09T13:06:51.955Z,48.82
2023-05-09T13:10:34.624Z,48.42
2023-05-09T13:14:17.407Z,48.44
2023-05-09T13:18:01.484Z,47.86
2023-05-09T13:21:44.236Z,47.40
2023-05-09T13:25:26.975Z,46.44
2023-05-09T13:29:09.653Z,45.45
2023-05-09T13:32:52.472Z,45.95
2023-05-09T13:36:36.820Z,45.07
2023-05-09T13:40:19.543Z,44.24
2023-05-09T13:44:02.232Z,44.21
2023-05-09T13:47:44.935Z,44.44
2023-05-09T13:51:29.015Z,43.01
2023-05-09T13:55:13.062Z,43.16
2023-05-09T13:58:55.753Z,43.18
2023-05-09T14:02:38.504Z,43.25
2023-05-09T14:06:23.582Z,42.86
2023-05-09T14:10:11.992Z,41.75
2023-05-09T14:13:56.921Z,41.96
2023-05-09T14:17:39.854Z,40.40
2023-05-09T14:21:22.568Z,40.19
2023-05-09T14:25:05.562Z,40.32
2023-05-09T14:28:48.243Z,39.91
2023-05-09T14:32:32.779Z,39.71
2023-05-09T14:36:15.818Z,39.49
2023-05-09T14:40:05.893Z,39.26
2023-05-09T14:43:48.630Z,38.30
2023-05-09T14:47:33.394Z,38.03
2023-05-09T14:51:16.116Z,37.41
2023-05-09T14:55:02.369Z,37.45
2023-05-09T14:58:44.987Z,35.63
2023-05-09T15:02:27.695Z,34.82
2023-05-09T15:06:13.519Z,34.98
2023-05-09T15:09:57.578Z,34.36
2023-05-09T15:13:40.221Z,33.02
2023-05-09T15:17:23.533Z,32.86
2023-05-09T15:21:06.771Z,32.48
2023-05-09T15:24:50.759Z,32.95
2023-05-09T15:28:33.862Z,33.14
2023-05-09T15:32:16.560Z,33.90
2023-05-09T15:36:00.841Z,34.56
2023-05-09T15:39:45.531Z,35.25
2023-05-09T15:43:29.640Z,36.21
2023-05-09T15:47:13.645Z,36.72
2023-05-09T15:50:56.495Z,37.29
2023-05-09T15:54:40.061Z,38.03
2023-05-09T15:58:22.711Z,38.69
2023-05-09T16:02:07.540Z,38.57
2023-05-09T16:05:50.483Z,38.76
2023-05-09T16:09:33.210Z,39.09
2023-05-09T16:13:17.829Z,39.52
2023-05-09T16:17:00.616Z,40.62
2023-05-09T16:20:44.957Z,41.23
2023-05-09T16:24:28.049Z,41.59
2023-05-09T16:28:11.054Z,41.76
2023-05-09T16:31:53.830Z,42.56
2023-05-09T16:35:40.085Z,43.07
2023-05-09T16:39:24.158Z,43.44
2023-05-09T16:43:07.072Z,43.56
2023-05-09T16:46:49.734Z,44.12
2023-05-09T16:50:32.631Z,44.66
2023-05-09T16:54:15.602Z,45.26
2023-05-09T16:57:59.672Z,45.98
2023-05-09T17:01:42.679Z,46.10
2023-05-09T17:05:25.607Z,46.23
2023-05-09T17:09:08.450Z,46.61
2023-05-09T17:12:51.384Z,47.13
2023-05-09T17:16:37.963Z,47.13
2023-05-09T17:20:21.006Z,47.38
2023-05-09T17:24:03.736Z,48.05
2023-05-09T17:27:46.444Z,48.07
2023-05-09T17:31:29.270Z,47.96
2023-05-09T17:35:13.768Z,48.17
2023-05-09T17:38:56.540Z,48.31
2023-05-09T17:42:39.178Z,48.43
2023-05-09T17:46:21.946Z,48.78
2023-05-09T17:50:05.211Z,49.13
2023-05-09T17:53:49.408Z,49.33
2023-05-09T17:57:32.055Z,49.23
2023-05-09T18:01:15.626Z,49.58
2023-05-09T18:04:58.867Z,50.00
2023-05-09T18:08:41.712Z,50.43
2023-05-09T18:12:35.604Z,50.72
2023-05-09T18:16:20.110Z,51.24
2023-05-09T18:20:03.039Z,51.36
2023-05-09T18:23:45.790Z,51.44
2023-05-09T18:27:31.334Z,51.49
2023-05-09T18:31:14.297Z,51.63
2023-05-09T18:34:57.096Z,51.76
2023-05-09T18:38:40.973Z,51.97
2023-05-09T18:42:26.983Z,52.21
2023-05-09T18:46:11.011Z,52.14
2023-05-09T18:49:53.862Z,51.93
2023-05-09T18:53:37.185Z,52.19
2023-05-09T18:57:20.898Z,52.05
2023-05-09T19:01:03.730Z,52.29
2023-05-09T19:04:48.795Z,52.06
2023-05-09T19:08:31.540Z,52.25
2023-05-09T19:12:16.347Z,52.13
2023-05-09T19:15:59.541Z,52.28
2023-05-09T19:19:42.222Z,52.32
2023-05-09T19:23:27.418Z,52.48
2023-05-09T19:27:10.075Z,52.24
2023-05-09T19:30:52.999Z,52.51
2023-05-09T19:34:38.350Z,52.52
2023-05-09T19:38:21.052Z,52.64
2023-05-09T19:42:05.278Z,52.78
2023-05-09T19:45:48.037Z,52.82
2023-05-09T19:49:31.089Z,52.84
2023-05-09T19:53:13.748Z,52.82
2023-05-09T19:56:56.421Z,53.08
2023-05-09T20:00:40.474Z,52.98
2023-05-09T20:04:24.011Z,52.96
2023-05-09T20:08:07.696Z,53.02
2023-05-09T20:11:50.520Z,53.14
2023-05-09T20:15:33.180Z,53.09
2023-05-09T20:19:17.288Z,53.67
2023-05-09T20:23:00.181Z,53.54
2023-05-09T20:26:43.191Z,54.03
2023-05-09T20:30:28.701Z,53.78
2023-05-09T20:34:13.645Z,53.80
2023-05-09T20:37:57.756Z,53.71
2023-05-09T20:41:40.516Z,53.48
2023-05-09T20:45:23.310Z,53.42
2023-05-09T20:49:05.988Z,54.04
2023-05-09T20:52:48.699Z,54.94
2023-05-09T20:56:33.619Z,55.43
2023-05-09T21:00:16.872Z,60.84
2023-05-09T21:03:59.998Z,67.10
2023-05-09T21:07:42.704Z,71.06
2023-05-09T21:11:25.416Z,73.54
2023-05-09T21:15:10.543Z,76.18
2023-05-09T21:18:53.168Z,78.24
2023-05-09T21:22:35.789Z,80.09
2023-05-09T21:26:18.561Z,82.88
2023-05-09T21:30:01.394Z,85.43
2023-05-09T21:33:45.724Z,88.44
2023-05-09T21:37:30.037Z,90.79
2023-05-09T21:41:12.866Z,94.24
2023-05-09T21:44:55.560Z,95.97
2023-05-09T21:48:38.237Z,98.54
2023-05-09T21:52:23.587Z,99.60
2023-05-09T21:56:08.125Z,99.94
2023-05-09T21:59:50.880Z,99.59
2023-05-09T22:03:33.758Z,100.00
2023-05-09T22:07:16.709Z,98.07
2023-05-09T22:11:00.806Z,98.74
2023-05-09T22:14:53.031Z,99.72
2023-05-09T22:18:38.750Z,100.00
2023-05-09T22:22:21.814Z,100.00
2023-05-09T22:26:06.080Z,100.00
2023-05-09T22:29:48.693Z,99.98
2023-05-09T22:33:31.344Z,99.06
2023-05-09T22:37:14.390Z,99.28
2023-05-09T22:40:57.031Z,100.00
2023-05-09T22:44:41.086Z,100.00
2023-05-09T22:48:23.832Z,100.00
2023-05-09T22:52:06.538Z,100.00
2023-05-09T22:55:49.324Z,100.00
2023-05-09T22:59:32.061Z,100.00
2023-05-09T23:03:16.332Z,100.00
2023-05-09T23:06:59.173Z,100.00
2023-05-09T23:10:41.794Z,100.00
2023-05-09T23:14:25.012Z,100.00
2023-05-09T23:18:08.028Z,100.00
2023-05-09T23:21:52.061Z,100.00
2023-05-09T23:25:34.789Z,100.00
2023-05-09T23:29:17.491Z,100.00
2023-05-09T23:33:00.229Z,100.00
2023-05-09T23:36:42.915Z,100.00
2023-05-09T23:40:26.904Z,100.00
2023-05-09T23:44:09.619Z,100.00
2023-05-09T23:47:52.425Z,100.00
2023-05-09T23:51:35.072Z,99.98
2023-05-09T23:55:18.054Z,100.00
2023-05-09T23:59:02.067Z,100.00
